createdAt,value
2022-10-19T00:01:55.336Z,12.96
2022-10-19T00:07:43.506Z,12.97
2022-10-19T00:13:30.310Z,12.96
2022-10-19T00:19:21.617Z,12.74
2022-10-19T00:25:08.656Z,12.68
2022-10-19T00:30:55.626Z,12.50
2022-10-19T00:36:45.129Z,12.29
2022-10-19T00:42:32.184Z,12.23
2022-10-19T00:48:32.367Z,12.31
2022-10-19T00:54:23.458Z,12.36
2022-10-19T01:00:11.571Z,12.35
2022-10-19T01:05:59.108Z,12.40
2022-10-19T01:11:57.695Z,12.38
2022-10-19T01:18:01.656Z,12.46
2022-10-19T01:24:23.899Z,12.41
2022-10-19T01:30:16.638Z,12.34
2022-10-19T01:36:20.191Z,12.55
2022-10-19T01:42:19.388Z,12.36
2022-10-19T01:48:41.147Z,12.21
2022-10-19T01:54:31.121Z,12.23
2022-10-19T02:00:23.076Z,12.14
2022-10-19T02:06:20.535Z,12.18
2022-10-19T02:12:10.702Z,12.12
2022-10-19T02:17:59.914Z,12.09
2022-10-19T02:23:48.360Z,12.24
2022-10-19T02:29:43.540Z,12.15
2022-10-19T02:35:31.480Z,12.06
2022-10-19T02:41:30.796Z,12.18
2022-10-19T02:47:22.494Z,12.24
2022-10-19T02:53:09.276Z,12.18
2022-10-19T02:58:56.860Z,12.20
2022-10-19T03:10:38.763Z,12.38
2022-10-19T03:16:25.690Z,12.50
2022-10-19T03:22:14.542Z,12.47
2022-10-19T03:28:01.203Z,12.66
2022-10-19T03:33:48.056Z,12.60
2022-10-19T03:39:35.087Z,12.58
2022-10-19T03:45:22.179Z,12.62
2022-10-19T03:51:12.999Z,12.65
2022-10-19T03:56:59.650Z,12.87
2022-10-19T04:02:49.367Z,12.89
2022-10-19T04:08:36.402Z,12.73
2022-10-19T04:14:32.683Z,12.70
2022-10-19T04:20:21.007Z,12.70
2022-10-19T04:26:09.771Z,12.68
2022-10-19T04:31:56.532Z,12.68
2022-10-19T04:37:48.108Z,12.71
2022-10-19T04:43:35.603Z,12.61
2022-10-19T04:49:23.507Z,12.74
2022-10-19T04:55:12.515Z,12.71
2022-10-19T05:00:59.370Z,12.72
2022-10-19T05:06:53.608Z,12.60
2022-10-19T05:12:40.534Z,12.71
2022-10-19T05:18:28.037Z,12.76
2022-10-19T05:24:16.905Z,12.62
2022-10-19T05:30:08.362Z,12.75
2022-10-19T05:35:55.278Z,12.64
2022-10-19T05:41:46.825Z,12.59
2022-10-19T05:47:34.219Z,12.60
2022-10-19T05:53:21.478Z,12.59
2022-10-19T05:59:10.640Z,12.56
2022-10-19T06:05:00.701Z,12.59
2022-10-19T06:10:51.226Z,12.56
2022-10-19T06:16:38.379Z,12.65
2022-10-19T06:22:27.564Z,12.70
2022-10-19T06:28:15.793Z,12.68
2022-10-19T06:41:46.739Z,12.60
2022-10-19T06:47:38.532Z,12.65
2022-10-19T06:53:46.941Z,12.74
2022-10-19T06:59:33.661Z,12.97
2022-10-19T07:05:25.722Z,13.11
2022-10-19T07:11:16.406Z,13.32
2022-10-19T07:17:03.056Z,13.69
2022-10-19T07:22:53.023Z,13.86
2022-10-19T07:28:41.499Z,14.04
2022-10-19T07:34:29.130Z,14.09
2022-10-19T07:40:16.029Z,14.02
2022-10-19T07:46:08.554Z,14.09
2022-10-19T07:51:59.858Z,14.61
2022-10-19T07:57:48.666Z,14.79
2022-10-19T08:09:58.977Z,14.57
2022-10-19T08:15:50.357Z,14.52
2022-10-19T08:21:39.419Z,14.66
2022-10-19T08:27:26.905Z,14.67
2022-10-19T08:33:21.500Z,14.68
2022-10-19T08:39:09.952Z,14.69
2022-10-19T08:45:50.929Z,14.67
2022-10-19T08:51:46.307Z,14.89
2022-10-19T08:58:00.946Z,14.96
2022-10-19T09:04:20.686Z,14.84
2022-10-19T09:10:16.605Z,14.82
2022-10-19T09:16:05.849Z,14.87
2022-10-19T09:22:05.111Z,15.03
2022-10-19T09:28:31.545Z,14.97
2022-10-19T09:34:50.273Z,15.20
2022-10-19T09:40:46.221Z,15.73
2022-10-19T09:46:52.626Z,16.09
2022-10-19T09:52:42.270Z,15.82
2022-10-19T09:58:32.986Z,15.80
2022-10-19T10:04:20.430Z,16.44
2022-10-19T10:10:49.340Z,16.36
2022-10-19T10:16:38.955Z,16.62
2022-10-19T10:22:34.927Z,16.84
2022-10-19T10:28:36.046Z,16.75
2022-10-19T10:34:50.083Z,16.33
2022-10-19T10:40:41.062Z,16.21
2022-10-19T10:46:35.868Z,16.17
2022-10-19T10:52:23.644Z,16.29
2022-10-19T10:58:25.425Z,16.44
2022-10-19T11:04:23.214Z,16.40
2022-10-19T11:10:30.394Z,16.55
2022-10-19T11:16:19.624Z,16.40
2022-10-19T11:22:43.970Z,16.87
2022-10-19T11:29:06.400Z,17.13
2022-10-19T11:35:08.936Z,16.38
2022-10-19T11:41:18.618Z,16.54
2022-10-19T11:47:37.326Z,16.41
2022-10-19T11:53:41.012Z,16.72
2022-10-19T11:59:50.791Z,17.04
2022-10-19T12:06:16.248Z,17.19
2022-10-19T12:12:32.851Z,17.09
2022-10-19T12:18:35.776Z,16.88
2022-10-19T12:24:30.714Z,16.99
2022-10-19T12:30:28.137Z,16.62
2022-10-19T12:37:05.989Z,16.91
2022-10-19T12:43:17.118Z,16.95
2022-10-19T12:49:28.805Z,16.94
2022-10-19T12:55:18.353Z,17.18
2022-10-19T13:01:07.334Z,17.11
2022-10-19T13:06:57.096Z,17.16
2022-10-19T13:12:46.958Z,17.22
2022-10-19T13:19:11.276Z,17.23
2022-10-19T13:25:37.771Z,17.14
2022-10-19T13:31:53.100Z,17.05
2022-10-19T13:37:40.614Z,17.19
2022-10-19T13:43:56.648Z,17.01
2022-10-19T13:50:02.145Z,16.91
2022-10-19T13:55:59.673Z,16.82
2022-10-19T14:01:56.065Z,17.03
2022-10-19T14:07:54.809Z,16.79
2022-10-19T14:13:41.997Z,16.74
2022-10-19T14:19:32.547Z,16.76
2022-10-19T14:25:30.341Z,16.57
2022-10-19T14:31:23.767Z,16.61
2022-10-19T14:37:35.073Z,16.71
2022-10-19T14:43:32.087Z,16.46
2022-10-19T14:49:19.021Z,16.37
2022-10-19T14:55:32.338Z,16.51
2022-10-19T15:01:22.137Z,16.38
2022-10-19T15:07:43.375Z,16.30
2022-10-19T15:13:42.510Z,16.44
2022-10-19T15:19:35.244Z,16.10
2022-10-19T15:25:40.065Z,15.91
2022-10-19T15:31:42.218Z,15.75
2022-10-19T15:37:32.533Z,15.69
2022-10-19T15:43:36.403Z,15.76
2022-10-19T15:49:41.844Z,15.57
2022-10-19T15:55:29.097Z,15.51
2022-10-19T16:01:42.245Z,15.34
2022-10-19T16:07:44.575Z,15.28
2022-10-19T16:13:41.973Z,15.29
2022-10-19T16:20:11.774Z,15.13
2022-10-19T16:26:04.622Z,15.15
2022-10-19T16:33:15.525Z,15.11
2022-10-19T16:39:18.377Z,15.15
2022-10-19T16:51:54.839Z,14.93
2022-10-19T16:57:45.101Z,14.99
2022-10-19T17:03:32.565Z,14.90
2022-10-19T17:09:54.510Z,14.77
2022-10-19T17:22:53.777Z,14.75
2022-10-19T17:28:43.979Z,14.77
2022-10-19T17:34:31.090Z,14.72
2022-10-19T17:40:17.942Z,14.61
2022-10-19T17:46:07.210Z,14.65
2022-10-19T17:51:54.183Z,14.69
2022-10-19T17:57:41.534Z,14.86
2022-10-19T18:03:35.256Z,14.80
2022-10-19T18:09:23.549Z,14.67
2022-10-19T18:15:16.233Z,14.67
2022-10-19T18:21:07.169Z,14.72
2022-10-19T18:27:05.912Z,14.78
2022-10-19T18:33:00.486Z,15.01
2022-10-19T18:38:52.431Z,14.91
2022-10-19T18:44:42.446Z,14.78
2022-10-19T18:50:33.364Z,14.74
2022-10-19T18:56:26.771Z,14.76
2022-10-19T19:02:22.821Z,14.86
2022-10-19T19:09:22.095Z,14.73
2022-10-19T19:15:13.996Z,15.00
2022-10-19T19:21:05.734Z,15.07
2022-10-19T19:26:54.757Z,14.87
2022-10-19T20:31:40.330Z,14.92
2022-10-19T20:37:36.292Z,15.07
2022-10-19T20:43:24.572Z,15.00
2022-10-19T20:49:12.717Z,15.06
2022-10-19T20:54:59.574Z,14.98
2022-10-19T21:00:46.546Z,15.05
2022-10-19T21:06:57.425Z,15.02
2022-10-19T21:12:44.339Z,15.01
2022-10-19T21:18:33.941Z,14.88
2022-10-19T21:24:35.450Z,15.18
2022-10-19T21:30:22.306Z,15.06
2022-10-19T21:36:10.165Z,15.15
2022-10-19T21:41:57.987Z,15.15
2022-10-19T21:47:47.022Z,15.16
2022-10-19T21:53:35.955Z,15.27
2022-10-19T21:59:24.771Z,15.20
2022-10-19T22:05:11.468Z,15.15
2022-10-19T22:10:58.206Z,15.08
2022-10-19T22:16:45.305Z,15.20
2022-10-19T22:22:34.163Z,15.27
2022-10-19T22:28:24.002Z,15.16
2022-10-19T22:34:18.979Z,15.28
2022-10-19T22:40:06.548Z,15.30
2022-10-19T22:45:54.392Z,15.32
2022-10-19T22:51:41.134Z,15.30
2022-10-19T22:57:27.853Z,15.20
2022-10-19T23:03:16.615Z,15.22
2022-10-19T23:09:03.754Z,15.25
2022-10-19T23:14:50.750Z,15.19
2022-10-19T23:20:39.720Z,15.08
2022-10-19T23:26:26.497Z,15.19
2022-10-19T23:32:15.370Z,15.03
2022-10-19T23:38:08.070Z,15.15
2022-10-19T23:43:55.229Z,15.19
2022-10-19T23:49:42.470Z,14.97
2022-10-19T23:55:29.447Z,15.06
